Time;durP1;ratioP1;P1;durP2;ratioP2;P2;SDS_P1;SDS_P2;PMS_P1;PMS_P2;Temp;Humidity;BMP_temperature;BMP_pressure;BME280_temperature;BME280_humidity;BME280_pressure;Samples;Min_cycle;Max_cycle;Signal;HPM_P1;HPM_P2
2023/01/12 00:00:56;;;;;;;0.47;0.47;;;;;;;13.47;71.12;100837.28;5011951;28;20030;-73
2023/01/12 00:03:22;;;;;;;0.30;0.30;;;;;;;13.75;71.53;100823.72;5012257;28;20469;-72
2023/01/12 00:05:47;;;;;;;0.30;0.30;;;;;;;13.70;70.72;100816.34;5012140;28;20069;-73
2023/01/12 00:08:12;;;;;;;0.40;0.40;;;;;;;13.55;70.85;100826.91;5011780;28;20068;-73
2023/01/12 00:10:38;;;;;;;0.38;0.38;;;;;;;13.70;70.00;100821.75;5012228;28;20064;-72
2023/01/12 00:13:03;;;;;;;0.20;0.20;;;;;;;13.91;68.80;100821.00;5011803;28;20026;-72
2023/01/12 00:18:13;;;;;;;0.30;0.30;;;;;;;13.84;69.64;100814.13;4997197;28;20142;-73
2023/01/12 00:20:38;;;;;;;0.30;0.30;;;;;;;13.63;69.63;100818.41;5012234;28;20189;-73
2023/01/12 00:23:04;;;;;;;0.30;0.30;;;;;;;13.89;69.15;100801.53;5012422;28;20042;-72
2023/01/12 00:25:29;;;;;;;0.20;0.20;;;;;;;14.22;67.87;100797.94;5011900;28;20124;-74
2023/01/12 00:27:54;;;;;;;0.40;0.40;;;;;;;13.82;69.35;100805.44;5012397;28;20110;-73
2023/01/12 00:30:20;;;;;;;0.28;0.28;;;;;;;14.27;66.82;100814.19;5012352;28;20124;-71
2023/01/12 00:32:45;;;;;;;0.40;0.40;;;;;;;13.99;67.49;100807.06;5011477;28;20092;-71
2023/01/12 00:35:10;;;;;;;0.20;0.20;;;;;;;14.07;68.34;100795.81;5011431;28;20068;-72
2023/01/12 00:37:36;;;;;;;0.40;0.40;;;;;;;13.92;69.66;100800.19;5011816;28;20089;-72
2023/01/12 00:40:01;;;;;;;0.40;0.40;;;;;;;14.00;68.86;100797.06;5011297;28;20109;-71
2023/01/12 00:45:23;;;;;;;0.30;0.30;;;;;;;14.06;68.64;100786.09;5012803;28;20062;-72
2023/01/12 00:47:49;;;;;;;0.25;0.25;;;;;;;13.66;69.13;100784.69;5011757;28;20056;-72
2023/01/12 00:50:14;;;;;;;0.40;0.40;;;;;;;14.14;68.77;100774.03;5011559;28;20038;-71
2023/01/12 00:52:40;;;;;;;0.30;0.30;;;;;;;13.92;68.85;100770.47;5011959;28;20030;-72
2023/01/12 00:55:06;;;;;;;0.20;0.20;;;;;;;14.27;68.29;100779.06;5011844;28;20049;-72
2023/01/12 00:57:31;;;;;;;0.30;0.30;;;;;;;14.08;68.54;100773.16;5012499;28;20545;-71
2023/01/12 00:59:58;;;;;;;0.30;0.30;;;;;;;14.33;68.26;100769.97;5012167;28;20246;-72
2023/01/12 01:02:25;;;;;;;0.30;0.30;;;;;;;14.29;68.54;100770.75;5011157;28;20034;-72
2023/01/12 01:04:50;;;;;;;0.20;0.20;;;;;;;14.26;67.46;100771.22;5011762;28;20042;-72
2023/01/12 01:07:16;;;;;;;0.32;0.32;;;;;;;14.18;69.06;100767.06;4994082;28;20158;-72
2023/01/12 01:09:43;;;;;;;0.30;0.30;;;;;;;14.25;68.14;100767.69;5011374;28;20034;-72
2023/01/12 01:12:08;;;;;;;0.25;0.25;;;;;;;13.97;68.51;100757.06;5011634;28;20041;-71
2023/01/12 01:14:34;;;;;;;0.30;0.30;;;;;;;14.03;69.50;100762.25;5011840;28;20033;-72
2023/01/12 01:16:59;;;;;;;0.22;0.22;;;;;;;14.22;68.39;100759.28;5011791;28;20457;-71
2023/01/12 01:19:24;;;;;;;0.30;0.30;;;;;;;13.86;69.96;100755.25;5026525;28;20044;-72
2023/01/12 01:21:50;;;;;;;0.30;0.30;;;;;;;14.57;68.01;100741.63;5011878;28;20398;-71
2023/01/12 01:24:15;;;;;;;0.25;0.25;;;;;;;14.13;69.64;100747.28;5011393;28;20191;-72
2023/01/12 01:26:41;;;;;;;0.30;0.30;;;;;;;14.13;70.04;100740.00;5011777;28;20133;-72
2023/01/12 01:29:07;;;;;;;0.30;0.30;;;;;;;14.29;68.33;100741.81;5011813;28;20444;-71
2023/01/12 01:31:32;;;;;;;0.20;0.20;;;;;;;13.82;70.33;100741.44;5011954;28;20030;-72
2023/01/12 01:33:57;;;;;;;0.40;0.40;;;;;;;13.51;71.43;100733.13;5011778;28;20105;-71
2023/01/12 01:36:23;;;;;;;0.30;0.30;;;;;;;14.47;67.91;100727.97;5012238;28;20124;-71
2023/01/12 01:38:49;;;;;;;0.20;0.20;;;;;;;13.81;70.27;100725.50;5011997;28;20043;-72
2023/01/12 01:41:19;;;;;;;0.10;0.10;;;;;;;14.08;69.71;100718.28;5012225;28;20041;-72
2023/01/12 01:43:52;;;;;;;0.33;0.33;;;;;;;14.46;68.86;100723.66;5009515;28;20088;-72
2023/01/12 01:46:52;;;;;;;0.20;0.20;;;;;;;14.59;68.47;100723.25;5012020;28;20034;-73
2023/01/12 01:49:17;;;;;;;0.40;0.40;;;;;;;14.10;69.61;100718.84;4930709;28;20044;-71
2023/01/12 01:51:44;;;;;;;0.43;0.43;;;;;;;14.49;69.88;100706.09;4931974;29;20047;-72
2023/01/12 01:54:10;;;;;;;0.40;0.40;;;;;;;13.87;70.79;100714.53;4931672;28;20526;-71
2023/01/12 01:56:36;;;;;;;0.20;0.20;;;;;;;13.94;72.06;100698.09;4931505;28;20048;-73
2023/01/12 01:59:09;;;;;;;0.22;0.22;;;;;;;14.42;70.74;100700.91;4931753;28;20040;-74
2023/01/12 02:01:35;;;;;;;0.40;0.40;;;;;;;14.56;70.03;100702.16;4931681;28;20050;-72
2023/01/12 02:04:02;;;;;;;0.40;0.40;;;;;;;14.32;71.14;100689.97;4947850;29;20027;-72
2023/01/12 02:06:28;;;;;;;0.20;0.20;;;;;;;14.40;70.84;100697.63;4951032;29;20049;-73
2023/01/12 02:08:53;;;;;;;0.50;0.50;;;;;;;14.33;71.84;100688.88;4933825;28;20052;-73
2023/01/12 02:16:54;;;;;;;0.20;0.20;;;;;;;14.47;71.29;100664.97;4931603;29;20058;-73
2023/01/12 02:19:31;;;;;;;;;;;;;;;15.06;69.04;100666.59;4931854;29;20095;-72
2023/01/12 02:22:15;;;;;;;0.30;0.30;;;;;;;14.98;69.90;100658.97;4934253;28;19911;-72
2023/01/12 02:25:11;;;;;;;0.20;0.20;;;;;;;15.07;69.21;100645.78;4968639;28;20502;-73
2023/01/12 02:27:58;;;;;;;0.20;0.20;;;;;;;14.37;71.80;100654.88;5015574;28;20046;-73
2023/01/12 02:30:35;;;;;;;0.32;0.32;;;;;;;14.67;70.38;100641.66;4997127;28;20069;-74
2023/01/12 02:33:39;;;;;;;0.10;0.10;;;;;;;14.99;69.83;100649.78;4997448;28;20070;-73
2023/01/12 02:36:07;;;;;;;0.20;0.20;;;;;;;14.31;72.35;100620.75;4933774;29;20044;-73
2023/01/12 02:38:48;;;;;;;0.25;0.25;;;;;;;14.80;70.26;100621.50;4935102;29;20108;-74
2023/01/12 02:44:25;;;;;;;0.30;0.30;;;;;;;14.47;71.71;100606.31;4953691;28;20123;-73
2023/01/12 02:46:51;;;;;;;0.28;0.28;;;;;;;14.65;71.58;100600.53;4937652;29;20046;-74
2023/01/12 02:49:21;;;;;;;0.30;0.30;;;;;;;14.35;73.17;100602.94;4933256;29;20048;-74
2023/01/12 02:51:55;;;;;;;0.20;0.20;;;;;;;14.47;72.84;100613.59;4934148;29;20079;-75
2023/01/12 02:54:22;;;;;;;0.30;0.30;;;;;;;13.67;75.18;100608.09;4934050;29;20048;-74
2023/01/12 02:56:59;;;;;;;0.20;0.20;;;;;;;13.91;75.26;100609.47;4933808;29;20091;-73
2023/01/12 02:59:28;;;;;;;0.40;0.40;;;;;;;14.26;73.49;100623.38;4934356;29;20055;-73
2023/01/12 03:02:03;;;;;;;0.38;0.38;;;;;;;14.64;72.28;100627.84;4934179;29;20108;-73
2023/01/12 03:04:31;;;;;;;0.28;0.28;;;;;;;14.72;71.64;100584.09;4934387;29;20400;-73
2023/01/12 03:06:56;;;;;;;0.25;0.25;;;;;;;14.07;73.94;100587.75;4933684;29;20043;-72
2023/01/12 03:09:46;;;;;;;0.25;0.25;;;;;;;14.32;73.65;100583.72;4933932;29;20051;-73
2023/01/12 03:12:17;;;;;;;0.20;0.20;;;;;;;14.87;70.76;100566.09;4951478;28;20049;-74
2023/01/12 03:14:46;;;;;;;0.30;0.30;;;;;;;14.53;71.54;100575.53;4994115;28;20042;-73
2023/01/12 03:17:30;;;;;;;0.17;0.17;;;;;;;14.83;72.02;100570.38;4994675;28;20564;-73
2023/01/12 03:20:02;;;;;;;0.20;0.20;;;;;;;14.92;70.67;100566.13;4977727;28;20034;-74
2023/01/12 03:22:31;;;;;;;0.20;0.20;;;;;;;14.23;73.36;100561.72;5013799;28;20038;-74
2023/01/12 03:25:01;;;;;;;0.13;0.13;;;;;;;14.42;72.68;100556.78;4995859;28;20453;-73
2023/01/12 03:27:36;;;;;;;0.30;0.30;;;;;;;14.00;73.31;100548.50;5014202;28;20108;-73
2023/01/12 03:30:06;;;;;;;0.20;0.20;;;;;;;14.11;73.45;100540.25;5013361;28;20034;-74
2023/01/12 03:32:33;;;;;;;0.20;0.20;;;;;;;14.25;73.56;100537.16;5012132;28;20378;-74
2023/01/12 03:34:59;;;;;;;0.20;0.20;;;;;;;14.64;72.08;100536.69;5013090;28;20048;-73
2023/01/12 03:37:32;;;;;;;0.30;0.30;;;;;;;14.05;73.47;100533.16;5013058;28;20034;-73
2023/01/12 03:40:09;;;;;;;0.28;0.28;;;;;;;14.21;72.65;100533.31;5013177;28;20034;-74
2023/01/12 03:42:45;;;;;;;0.20;0.20;;;;;;;14.26;73.84;100519.84;5013744;28;20044;-74
2023/01/12 03:45:13;;;;;;;0.10;0.10;;;;;;;13.74;75.53;100508.78;5012909;28;20498;-74
2023/01/12 03:47:42;;;;;;;0.17;0.17;;;;;;;13.98;74.49;100507.44;5013198;28;20097;-73
2023/01/12 03:50:19;;;;;;;0.20;0.20;;;;;;;14.26;72.80;100498.22;5013133;28;20180;-74
2023/01/12 03:52:45;;;;;;;0.20;0.20;;;;;;;14.09;73.18;100501.84;5013324;28;20553;-74
2023/01/12 03:55:15;;;;;;;0.30;0.30;;;;;;;14.22;73.14;100492.53;5012925;28;20063;-73
2023/01/12 03:57:42;;;;;;;0.20;0.20;;;;;;;14.19;72.63;100474.09;5013430;28;20120;-75
2023/01/12 04:00:11;;;;;;;0.20;0.20;;;;;;;14.37;72.64;100468.34;5013363;28;20050;-74
2023/01/12 04:02:36;;;;;;;0.30;0.30;;;;;;;14.53;71.77;100456.56;5012886;28;20034;-74
2023/01/12 04:05:02;;;;;;;0.30;0.30;;;;;;;13.59;74.66;100463.56;5012971;28;20525;-74
2023/01/12 04:07:28;;;;;;;0.30;0.30;;;;;;;14.03;73.12;100458.88;5012761;28;20513;-74
2023/01/12 04:09:55;;;;;;;0.25;0.25;;;;;;;14.33;72.56;100469.13;5013089;28;20032;-74
2023/01/12 04:12:21;;;;;;;0.30;0.30;;;;;;;13.88;73.09;100445.19;5011362;28;20181;-75
2023/01/12 04:14:47;;;;;;;0.30;0.30;;;;;;;13.84;72.92;100455.69;5012295;28;20124;-73
2023/01/12 04:17:13;;;;;;;0.10;0.10;;;;;;;14.08;72.68;100429.16;5012492;28;20034;-73
2023/01/12 04:19:39;;;;;;;0.40;0.40;;;;;;;13.77;73.43;100419.19;5011919;28;20030;-73
2023/01/12 04:24:49;;;;;;;0.20;0.20;;;;;;;13.63;74.23;100417.97;5012319;28;20060;-74
2023/01/12 04:27:16;;;;;;;0.30;0.30;;;;;;;14.39;71.91;100405.91;5012721;28;20042;-75
2023/01/12 04:29:42;;;;;;;0.30;0.30;;;;;;;13.92;73.55;100389.59;5012816;28;20492;-76
2023/01/12 04:32:08;;;;;;;0.47;0.47;;;;;;;13.82;73.75;100371.41;5012262;28;20040;-74
2023/01/12 04:34:33;;;;;;;0.30;0.30;;;;;;;14.00;72.97;100365.63;5012220;28;20537;-75
2023/01/12 04:37:01;;;;;;;0.28;0.28;;;;;;;14.06;73.47;100352.97;4994247;28;20021;-75
2023/01/12 04:39:27;;;;;;;0.20;0.20;;;;;;;13.96;71.24;100331.28;5012188;28;20097;-76
2023/01/12 04:41:53;;;;;;;0.30;0.30;;;;;;;14.63;70.36;100301.66;5011747;28;20050;-75
2023/01/12 04:44:18;;;;;;;0.20;0.20;;;;;;;14.48;70.79;100298.91;5011522;28;20038;-75
2023/01/12 04:46:43;;;;;;;0.45;0.45;;;;;;;14.45;69.02;100294.03;4991377;28;20045;-74
2023/01/12 04:49:09;;;;;;;0.20;0.20;;;;;;;14.58;71.03;100271.91;4992452;28;20045;-74
2023/01/12 04:51:34;;;;;;;0.40;0.40;;;;;;;14.13;71.06;100268.97;4993097;28;20034;-75
2023/01/12 04:54:00;;;;;;;0.20;0.20;;;;;;;14.52;70.13;100249.47;4992507;28;20038;-75
2023/01/12 04:56:25;;;;;;;0.47;0.47;;;;;;;14.73;68.81;100248.44;4975188;28;20046;-76
2023/01/12 04:58:59;;;;;;;0.30;0.30;;;;;;;14.44;70.06;100249.16;4974953;28;20042;-74
2023/01/12 05:01:25;;;;;;;0.22;0.22;;;;;;;14.53;69.16;100231.31;4983302;28;20030;-75
2023/01/12 05:03:54;;;;;;;0.30;0.30;;;;;;;14.25;70.87;100221.72;5011680;28;20033;-75
2023/01/12 05:06:19;;;;;;;0.30;0.30;;;;;;;14.62;69.33;100210.81;5011640;28;20041;-74
2023/01/12 05:11:28;;;;;;;0.20;0.20;;;;;;;14.24;70.73;100208.50;5011851;28;20100;-74
2023/01/12 05:13:55;;;;;;;0.30;0.30;;;;;;;14.02;71.98;100208.66;5011753;28;20372;-76
2023/01/12 05:16:21;;;;;;;0.20;0.20;;;;;;;13.74;73.36;100190.13;5011208;28;20076;-73
2023/01/12 05:18:46;;;;;;;0.13;0.13;;;;;;;14.27;71.34;100191.75;5012018;28;20026;-73
2023/01/12 05:21:14;;;;;;;0.20;0.20;;;;;;;14.18;72.18;100214.94;5011598;28;20041;-74
2023/01/12 05:23:40;;;;;;;0.30;0.30;;;;;;;13.99;72.38;100203.81;5011902;28;20054;-75
2023/01/12 05:26:06;;;;;;;0.17;0.17;;;;;;;13.63;74.80;100189.28;5012739;28;20041;-75
2023/01/12 05:28:32;;;;;;;0.20;0.20;;;;;;;13.54;74.72;100188.13;5011431;28;20038;-74
2023/01/12 05:31:07;;;;;;;0.20;0.20;;;;;;;14.32;73.00;100192.63;5011617;28;20107;-74
2023/01/12 05:33:32;;;;;;;0.30;0.30;;;;;;;13.85;74.00;100187.25;5011746;28;20300;-75
2023/01/12 05:35:58;;;;;;;0.20;0.20;;;;;;;14.09;74.45;100198.44;5011045;28;20041;-74
2023/01/12 05:38:24;;;;;;;0.30;0.30;;;;;;;14.28;73.27;100175.31;4993983;28;20097;-74
2023/01/12 05:40:49;;;;;;;0.20;0.20;;;;;;;13.95;73.76;100181.09;5011617;28;20510;-74
2023/01/12 05:46:03;;;;;;;0.30;0.30;;;;;;;13.66;76.21;100182.56;5012064;28;20081;-74
2023/01/12 05:48:29;;;;;;;0.13;0.13;;;;;;;14.04;74.74;100166.00;5027116;28;20042;-74
2023/01/12 05:51:02;;;;;;;0.25;0.25;;;;;;;13.91;75.43;100178.09;5011321;28;20038;-75
2023/01/12 05:53:28;;;;;;;0.25;0.25;;;;;;;13.76;76.30;100152.88;5011508;28;20038;-74
2023/01/12 05:55:53;;;;;;;0.10;0.10;;;;;;;13.56;77.20;100194.09;5012381;28;20044;-74
2023/01/12 05:58:19;;;;;;;0.20;0.20;;;;;;;13.65;77.98;100178.22;5015223;28;20033;-75
2023/01/12 06:00:44;;;;;;;0.20;0.20;;;;;;;13.58;77.59;100167.63;5012545;28;20038;-74
2023/01/12 06:03:09;;;;;;;0.17;0.17;;;;;;;13.58;77.69;100169.56;5008698;28;20117;-74
2023/01/12 06:05:35;;;;;;;0.13;0.13;;;;;;;14.02;76.83;100162.75;5008906;28;20167;-75
2023/01/12 06:08:01;;;;;;;0.30;0.30;;;;;;;13.34;78.53;100190.72;5008504;28;20033;-75
2023/01/12 06:10:27;;;;;;;0.20;0.20;;;;;;;13.62;77.71;100189.56;5010133;28;20116;-75
2023/01/12 06:15:37;;;;;;;0.30;0.30;;;;;;;13.50;78.86;100184.34;5013414;28;20493;-75
2023/01/12 06:18:02;;;;;;;0.17;0.17;;;;;;;13.76;77.27;100174.50;5014878;28;20066;-74
2023/01/12 06:20:27;;;;;;;0.10;0.10;;;;;;;13.71;78.67;100177.19;5014908;28;20064;-76
2023/01/12 06:22:53;;;;;;;0.20;0.20;;;;;;;13.44;79.65;100206.16;5016031;28;20498;-77
2023/01/12 06:25:18;;;;;;;0.20;0.20;;;;;;;13.62;78.40;100184.94;5014281;28;20121;-75
2023/01/12 06:27:43;;;;;;;0.20;0.20;;;;;;;13.50;79.92;100202.44;5014977;28;20029;-74
2023/01/12 06:30:09;;;;;;;0.20;0.20;;;;;;;13.56;78.97;100193.28;5009146;28;20034;-76
2023/01/12 06:32:35;;;;;;;0.30;0.30;;;;;;;13.40;80.35;100169.97;5013881;28;20052;-75
2023/01/12 06:35:02;;;;;;;0.20;0.20;;;;;;;13.44;79.91;100174.59;5014086;28;20120;-76
2023/01/12 06:37:29;;;;;;;0.30;0.30;;;;;;;13.41;80.60;100187.78;5014194;28;20033;-75
2023/01/12 06:39:54;;;;;;;0.30;0.30;;;;;;;13.18;80.63;100184.41;5015344;28;20026;-75
2023/01/12 06:42:30;;;;;;;0.20;0.20;;;;;;;13.51;78.91;100209.44;5011811;28;20064;-77
2023/01/12 06:44:57;;;;;;;0.40;0.40;;;;;;;13.90;77.65;100178.34;5010586;28;20401;-76
2023/01/12 06:47:23;;;;;;;0.30;0.30;;;;;;;13.97;78.12;100187.03;5012610;28;20045;-78
2023/01/12 06:49:52;;;;;;;0.10;0.10;;;;;;;13.37;80.29;100186.66;5011862;28;20085;-76
2023/01/12 06:52:23;;;;;;;0.10;0.10;;;;;;;13.56;80.19;100193.28;5012039;28;20045;-77
2023/01/12 06:54:49;;;;;;;0.17;0.17;;;;;;;13.13;81.04;100178.94;5014267;28;20030;-79
2023/01/12 06:57:14;;;;;;;0.20;0.20;;;;;;;13.23;82.05;100195.22;5014851;28;20052;-75
2023/01/12 06:59:43;;;;;;;0.10;0.10;;;;;;;13.49;81.38;100195.38;5014138;28;20034;-77
2023/01/12 07:02:13;;;;;;;0.20;0.20;;;;;;;13.42;80.93;100195.63;5013652;28;20034;-76
2023/01/12 07:04:39;;;;;;;0.35;0.35;;;;;;;13.37;82.00;100181.25;5014507;28;20042;-76
2023/01/12 07:07:06;;;;;;;0.20;0.20;;;;;;;13.16;82.13;100174.91;5012926;28;20180;-77
2023/01/12 07:09:32;;;;;;;0.30;0.30;;;;;;;13.31;82.38;100201.19;4996977;28;20085;-73
2023/01/12 07:11:57;;;;;;;0.20;0.20;;;;;;;13.81;80.70;100194.25;5014612;28;20034;-77
2023/01/12 07:14:23;;;;;;;0.30;0.30;;;;;;;13.81;79.15;100194.25;5014531;28;20062;-77
2023/01/12 07:16:48;;;;;;;0.20;0.20;;;;;;;13.38;81.95;100208.03;5013577;28;20402;-75
2023/01/12 07:19:13;;;;;;;0.22;0.22;;;;;;;13.23;82.12;100197.09;5022920;28;20038;-77
2023/01/12 07:21:39;;;;;;;0.30;0.30;;;;;;;13.11;83.28;100199.97;5013791;28;20493;-76
2023/01/12 07:24:04;;;;;;;0.20;0.20;;;;;;;13.17;84.58;100211.59;5012465;28;20422;-79
2023/01/12 07:26:30;;;;;;;0.20;0.20;;;;;;;13.34;82.45;100209.59;4995858;28;20112;-77
2023/01/12 07:28:55;;;;;;;0.20;0.20;;;;;;;13.68;81.61;100202.81;5013851;28;20089;-75
2023/01/12 07:31:20;;;;;;;0.13;0.13;;;;;;;14.28;79.76;100215.03;5013631;28;20406;-76
2023/01/12 07:33:46;;;;;;;0.40;0.40;;;;;;;13.80;80.76;100222.31;5011345;28;20096;-75
2023/01/12 07:36:12;;;;;;;0.30;0.30;;;;;;;13.61;82.52;100206.81;5009121;28;20548;-77
2023/01/12 07:38:37;;;;;;;0.20;0.20;;;;;;;13.56;83.09;100220.28;5007621;28;20112;-77
2023/01/12 07:41:03;;;;;;;0.20;0.20;;;;;;;13.68;83.30;100210.91;5008290;28;20045;-78
2023/01/12 07:43:32;;;;;;;0.22;0.22;;;;;;;13.87;81.49;100222.09;5011020;28;20110;-77
2023/01/12 07:45:58;;;;;;;0.20;0.20;;;;;;;13.64;82.59;100220.59;5013842;28;20387;-76
2023/01/12 07:48:25;;;;;;;0.35;0.35;;;;;;;13.68;82.28;100219.00;5013161;28;20065;-78
2023/01/12 07:50:51;;;;;;;0.10;0.10;;;;;;;14.24;79.94;100228.22;5012764;28;20030;-76
2023/01/12 07:53:17;;;;;;;0.30;0.30;;;;;;;14.28;80.53;100233.94;5013778;28;20521;-77
2023/01/12 07:55:42;;;;;;;0.28;0.28;;;;;;;14.48;79.71;100231.31;4995873;28;20046;-78
2023/01/12 07:58:08;;;;;;;0.13;0.13;;;;;;;13.86;81.56;100234.78;5013976;28;20053;-76
2023/01/12 08:00:34;;;;;;;0.20;0.20;;;;;;;13.53;84.62;100245.91;5013260;28;20128;-76
2023/01/12 08:03:08;;;;;;;0.10;0.10;;;;;;;14.10;82.08;100246.81;5012363;28;20478;-76
2023/01/12 08:05:34;;;;;;;0.20;0.20;;;;;;;14.36;80.67;100236.16;5010236;28;20065;-74
2023/01/12 08:08:00;;;;;;;0.20;0.20;;;;;;;14.31;80.99;100236.13;5013660;28;20034;-77
2023/01/12 08:10:25;;;;;;;0.20;0.20;;;;;;;14.27;83.68;100243.91;5013070;28;20064;-78
2023/01/12 08:12:51;;;;;;;0.20;0.20;;;;;;;14.22;81.70;100253.88;5012788;28;20026;-77
2023/01/12 08:15:16;;;;;;;0.20;0.20;;;;;;;14.17;82.77;100261.97;5012955;28;20121;-77
2023/01/12 08:17:48;;;;;;;0.28;0.28;;;;;;;14.33;82.70;100256.41;5012894;28;20457;-78
2023/01/12 08:20:18;;;;;;;0.20;0.20;;;;;;;14.47;82.18;100256.72;5008598;28;20048;-76
2023/01/12 08:22:47;;;;;;;0.20;0.20;;;;;;;14.70;80.56;100261.69;5013363;28;20062;-77
2023/01/12 08:25:17;;;;;;;0.20;0.20;;;;;;;14.15;83.37;100250.63;5012396;28;20410;-74
2023/01/12 08:27:46;;;;;;;0.30;0.30;;;;;;;14.47;83.33;100249.44;5013294;28;20062;-75
2023/01/12 08:30:16;;;;;;;0.20;0.20;;;;;;;14.73;82.29;100261.16;5012985;28;20034;-74
2023/01/12 08:32:42;;;;;;;0.35;0.30;;;;;;;14.67;81.94;100276.53;4995698;28;20154;-75
2023/01/12 08:35:09;;;;;;;0.20;0.20;;;;;;;14.74;81.13;100266.28;5012110;28;20058;-76
2023/01/12 08:37:35;;;;;;;0.20;0.20;;;;;;;14.22;82.79;100287.13;5012780;28;20049;-73
2023/01/12 08:40:03;;;;;;;0.25;0.25;;;;;;;15.25;80.70;100269.88;5012836;28;20037;-73
2023/01/12 08:42:29;;;;;;;0.30;0.30;;;;;;;15.06;79.97;100279.63;5028501;28;20102;-79
2023/01/12 08:44:54;;;;;;;0.20;0.20;;;;;;;14.93;81.25;100270.13;5012859;28;20053;-74
2023/01/12 08:47:26;;;;;;;0.10;0.10;;;;;;;15.22;79.81;100283.97;5012045;28;20529;-74
2023/01/12 08:49:51;;;;;;;0.22;0.22;;;;;;;14.92;80.14;100290.13;5012530;28;20041;-73
2023/01/12 08:52:17;;;;;;;0.30;0.30;;;;;;;15.02;79.95;100283.16;5012260;28;20037;-73
2023/01/12 08:54:42;;;;;;;0.20;0.20;;;;;;;15.64;78.03;100294.59;5012873;28;20030;-75
2023/01/12 08:57:08;;;;;;;0.20;0.20;;;;;;;15.65;78.16;100294.31;5012010;28;20050;-76
2023/01/12 08:59:33;;;;;;;0.30;0.30;;;;;;;15.05;80.54;100307.78;5011979;28;20034;-75
2023/01/12 09:01:59;;;;;;;0.38;0.38;;;;;;;15.36;78.90;100292.38;5012345;28;20041;-73
2023/01/12 09:04:24;;;;;;;0.20;0.20;;;;;;;15.32;79.30;100296.69;5011714;28;20553;-76
2023/01/12 09:06:49;;;;;;;0.20;0.20;;;;;;;15.32;79.41;100299.41;5012342;28;20022;-76
2023/01/12 09:09:18;;;;;;;0.22;0.22;;;;;;;15.12;79.57;100305.59;5012903;28;20098;-69
2023/01/12 09:11:44;;;;;;;0.20;0.20;;;;;;;15.46;77.99;100295.94;5011620;28;20057;-70
2023/01/12 09:14:11;;;;;;;0.20;0.20;;;;;;;15.16;79.51;100319.41;5011208;28;20081;-69
2023/01/12 09:16:37;;;;;;;0.10;0.10;;;;;;;14.81;80.90;100322.84;5010666;28;20038;-70
2023/01/12 09:19:02;;;;;;;0.30;0.30;;;;;;;15.18;80.14;100309.13;5010969;28;20050;-69
2023/01/12 09:21:43;;;;;;;0.30;0.30;;;;;;;15.93;77.31;100330.88;5011403;28;20042;-69
2023/01/12 09:24:10;;;;;;;0.10;0.10;;;;;;;15.16;80.53;100322.13;5010995;28;20057;-69
2023/01/12 09:26:41;;;;;;;0.40;0.38;;;;;;;15.68;78.90;100339.00;5011087;28;20038;-69
2023/01/12 09:29:07;;;;;;;;;;;;;;;15.73;78.56;100333.59;5011455;28;20102;-70
2023/01/12 09:31:34;;;;;;;0.20;0.20;;;;;;;15.13;80.56;100374.09;5013154;28;19933;-71
2023/01/12 09:33:59;;;;;;;0.30;0.30;;;;;;;15.24;80.71;100345.94;5015115;28;20026;-70
2023/01/12 09:36:27;;;;;;;0.20;0.20;;;;;;;15.41;79.12;100349.25;5015635;28;20398;-69
2023/01/12 09:38:53;;;;;;;0.20;0.20;;;;;;;15.81;78.87;100333.88;5015002;28;20034;-70
2023/01/12 09:47:06;;;;;;;0.28;0.28;;;;;;;15.25;80.48;100342.97;5015101;28;20137;-71
2023/01/12 09:49:39;;;;;;;0.15;0.15;;;;;;;15.47;79.87;100351.72;5014411;28;20042;-70
2023/01/12 09:52:16;;;;;;;0.30;0.30;;;;;;;15.59;79.85;100357.69;5012630;28;20128;-69
2023/01/12 09:54:42;;;;;;;0.20;0.20;;;;;;;16.13;77.24;100357.13;5014975;28;20029;-70
2023/01/12 09:57:45;;;;;;;0.30;0.30;;;;;;;16.13;77.86;100376.94;5012706;28;20246;-69
2023/01/12 10:00:15;;;;;;;0.25;0.25;;;;;;;15.90;78.30;100382.09;5014538;28;20042;-70
2023/01/12 10:03:06;;;;;;;0.22;0.22;;;;;;;15.95;78.53;100382.09;5014587;28;20038;-70
2023/01/12 10:05:44;;;;;;;0.20;0.20;;;;;;;15.80;78.46;100377.50;5014426;28;20037;-70
2023/01/12 10:08:17;;;;;;;0.30;0.30;;;;;;;15.54;80.63;100386.66;5014924;28;20041;-71
2023/01/12 10:10:59;;;;;;;0.20;0.20;;;;;;;15.89;79.53;100391.28;5014408;28;20052;-70
2023/01/12 10:13:38;;;;;;;0.30;0.30;;;;;;;15.42;80.12;100386.09;5014086;28;20117;-71
2023/01/12 10:16:24;;;;;;;0.30;0.30;;;;;;;15.74;79.12;100392.13;5014509;28;20045;-70
2023/01/12 10:18:55;;;;;;;0.20;0.20;;;;;;;15.83;77.13;100385.88;5014641;28;20029;-69
2023/01/12 10:21:22;;;;;;;0.20;0.20;;;;;;;15.65;78.74;100415.38;5014238;28;20060;-69
2023/01/12 10:23:51;;;;;;;0.20;0.20;;;;;;;15.95;76.57;100401.06;5013233;28;20049;-70
2023/01/12 10:26:21;;;;;;;0.30;0.30;;;;;;;15.92;77.08;100413.25;5014067;28;20347;-70
2023/01/12 10:28:51;;;;;;;0.30;0.30;;;;;;;15.69;78.18;100403.75;5013813;28;20042;-70
2023/01/12 10:31:22;;;;;;;0.25;0.25;;;;;;;16.12;76.50;100396.97;5002880;28;20030;-70
2023/01/12 10:34:08;;;;;;;0.20;0.20;;;;;;;16.20;76.17;100417.31;4977228;28;20074;-71
2023/01/12 10:36:42;;;;;;;0.30;0.30;;;;;;;15.99;77.18;100407.56;4976337;28;20133;-71
2023/01/12 10:39:37;;;;;;;0.17;0.17;;;;;;;16.24;75.97;100407.53;4994074;28;20042;-70
2023/01/12 10:45:22;;;;;;;0.30;0.30;;;;;;;16.07;75.93;100409.72;4993689;28;20082;-71
2023/01/12 10:47:51;;;;;;;0.30;0.30;;;;;;;15.63;78.18;100414.84;4994019;28;20039;-70
2023/01/12 10:50:32;;;;;;;0.20;0.20;;;;;;;15.80;77.77;100397.25;4993344;28;20034;-70
2023/01/12 10:53:02;;;;;;;;;;;;;;;16.40;75.19;100409.97;4994385;28;20045;-69
2023/01/12 10:55:31;;;;;;;0.30;0.30;;;;;;;16.08;76.00;100409.44;4975923;28;19944;-71
2023/01/12 10:57:57;;;;;;;0.20;0.20;;;;;;;16.46;74.51;100414.31;4993880;28;20116;-70
2023/01/12 11:00:25;;;;;;;0.38;0.38;;;;;;;16.39;75.04;100407.53;4994361;28;20034;-68
2023/01/12 11:02:51;;;;;;;0.20;0.20;;;;;;;16.26;76.38;100408.91;4993811;28;20092;-69
2023/01/12 11:05:37;;;;;;;0.20;0.20;;;;;;;16.47;75.49;100413.19;4994517;28;20121;-70
2023/01/12 11:08:23;;;;;;;0.30;0.30;;;;;;;16.65;74.20;100398.28;4993448;28;20539;-71
2023/01/12 11:10:48;;;;;;;0.20;0.20;;;;;;;16.92;74.30;100412.31;4976132;28;20510;-70
2023/01/12 11:13:43;;;;;;;0.10;0.10;;;;;;;16.51;74.46;100403.47;4993739;28;20094;-70
2023/01/12 11:16:21;;;;;;;0.25;0.25;;;;;;;16.93;73.89;100421.25;4942306;29;20106;-70
2023/01/12 11:18:57;;;;;;;0.20;0.20;;;;;;;16.28;76.20;100425.72;4952298;29;20023;-70
2023/01/12 11:21:26;;;;;;;0.30;0.30;;;;;;;16.37;75.44;100420.56;4936024;29;20531;-68
2023/01/12 11:24:12;;;;;;;0.30;0.30;;;;;;;16.21;76.89;100410.81;4951436;29;20051;-70
2023/01/12 11:26:57;;;;;;;0.30;0.30;;;;;;;16.98;73.14;100423.97;4947720;29;20047;-69
2023/01/12 11:29:39;;;;;;;0.30;0.30;;;;;;;17.09;73.07;100407.34;4932542;29;20047;-69
2023/01/12 11:32:15;;;;;;;0.30;0.30;;;;;;;16.35;76.12;100409.16;4932825;29;20035;-70
2023/01/12 11:35:03;;;;;;;0.20;0.20;;;;;;;16.33;75.51;100409.41;4932617;29;20412;-72
2023/01/12 11:37:32;;;;;;;0.30;0.30;;;;;;;16.80;73.31;100413.72;4932259;29;20040;-70
2023/01/12 11:40:16;;;;;;;0.20;0.20;;;;;;;16.57;75.26;100402.38;4932623;29;20182;-72
2023/01/12 11:46:02;;;;;;;0.30;0.30;;;;;;;16.88;74.18;100402.28;4932621;29;20054;-70
2023/01/12 11:48:36;;;;;;;0.20;0.20;;;;;;;16.56;75.14;100398.03;4875953;29;20044;-69
2023/01/12 11:51:02;;;;;;;0.30;0.30;;;;;;;16.14;75.91;100405.66;4875707;29;20112;-70
2023/01/12 11:53:27;;;;;;;0.20;0.20;;;;;;;16.55;74.73;100409.97;4923990;28;20040;-70
2023/01/12 11:56:26;;;;;;;0.30;0.30;;;;;;;16.96;73.37;100442.44;4932104;28;20213;-70
2023/01/12 11:59:12;;;;;;;0.30;0.30;;;;;;;16.73;74.47;100405.06;4932017;28;20039;-69
2023/01/12 12:02:15;;;;;;;0.20;0.20;;;;;;;17.28;73.56;100393.94;4933022;28;20392;-68
2023/01/12 12:04:59;;;;;;;0.22;0.22;;;;;;;17.08;73.35;100394.84;4932147;28;20570;-70
2023/01/12 12:07:27;;;;;;;0.30;0.30;;;;;;;16.53;74.15;100393.16;4944253;28;20032;-69
2023/01/12 12:10:03;;;;;;;0.20;0.20;;;;;;;15.98;77.04;100397.81;4931764;29;20214;-69
2023/01/12 12:12:40;;;;;;;0.13;0.13;;;;;;;16.29;75.53;100383.97;4927903;29;20155;-70
2023/01/12 12:15:34;;;;;;;0.30;0.30;;;;;;;15.98;76.72;100419.50;4929110;28;20591;-68